createdAt,value
2018-08-20T00:01:32.647Z,20.74
2018-08-20T00:03:58.957Z,20.71
2018-08-20T00:06:25.272Z,20.69
2018-08-20T00:08:51.586Z,20.70
2018-08-20T00:11:17.911Z,20.68
2018-08-20T00:13:44.230Z,20.76
2018-08-20T00:16:10.531Z,20.74
2018-08-20T00:18:36.841Z,20.66
2018-08-20T00:21:03.219Z,20.70
2018-08-20T00:23:29.531Z,20.65
2018-08-20T00:25:55.881Z,20.59
2018-08-20T00:28:22.216Z,20.55
2018-08-20T00:30:48.563Z,20.52
2018-08-20T00:33:14.881Z,20.52
2018-08-20T00:35:41.198Z,20.49
2018-08-20T00:38:07.548Z,20.47
2018-08-20T00:40:33.906Z,20.52
2018-08-20T00:43:00.210Z,20.52
2018-08-20T00:45:26.520Z,20.49
2018-08-20T00:47:52.830Z,20.42
2018-08-20T00:50:19.140Z,20.42
2018-08-20T00:52:45.447Z,20.39
2018-08-20T00:55:11.754Z,20.33
2018-08-20T00:57:38.064Z,20.29
2018-08-20T01:00:04.439Z,20.16
2018-08-20T01:02:30.764Z,20.02
2018-08-20T01:04:57.077Z,19.95
2018-08-20T01:07:23.394Z,19.86
2018-08-20T01:09:49.704Z,19.87
2018-08-20T01:12:16.099Z,19.82
2018-08-20T01:14:42.420Z,19.75
2018-08-20T01:17:08.752Z,19.74
2018-08-20T01:19:35.056Z,19.71
2018-08-20T01:22:01.381Z,19.70
2018-08-20T01:24:27.688Z,19.63
2018-08-20T01:26:54.000Z,19.60
2018-08-20T01:29:20.329Z,19.58
2018-08-20T01:31:46.635Z,19.56
2018-08-20T01:34:12.947Z,19.48
2018-08-20T01:36:39.262Z,19.36
2018-08-20T01:39:05.579Z,19.34
2018-08-20T01:41:31.895Z,19.68
2018-08-20T01:43:58.204Z,19.92
2018-08-20T01:46:24.553Z,19.81
2018-08-20T01:48:50.922Z,19.84
2018-08-20T01:51:17.237Z,19.84
2018-08-20T01:53:43.554Z,19.66
2018-08-20T01:56:09.914Z,19.73
2018-08-20T01:58:36.232Z,19.53
2018-08-20T02:01:02.539Z,19.39
2018-08-20T02:03:28.863Z,19.11
2018-08-20T02:05:55.172Z,19.01
2018-08-20T02:08:21.479Z,19.01
2018-08-20T02:10:47.791Z,19.33
2018-08-20T02:13:14.109Z,19.66
2018-08-20T02:15:40.434Z,20.02
2018-08-20T02:18:06.735Z,20.46
2018-08-20T02:20:33.043Z,20.68
2018-08-20T02:22:59.364Z,20.82
2018-08-20T02:25:25.681Z,21.10
2018-08-20T02:27:51.994Z,20.89
2018-08-20T02:30:18.306Z,20.43
2018-08-20T02:32:44.611Z,20.26
2018-08-20T02:35:10.925Z,19.79
2018-08-20T02:37:37.240Z,19.47
2018-08-20T02:40:03.622Z,19.25
2018-08-20T02:42:29.926Z,19.49
2018-08-20T02:44:56.241Z,20.24
2018-08-20T02:47:22.599Z,20.56
2018-08-20T02:49:48.909Z,20.28
2018-08-20T02:52:15.227Z,19.78
2018-08-20T02:54:41.547Z,19.33
2018-08-20T02:57:07.861Z,19.21
2018-08-20T02:59:34.168Z,19.08
2018-08-20T03:02:00.516Z,18.89
2018-08-20T03:04:26.814Z,18.83
2018-08-20T03:06:53.125Z,18.89
2018-08-20T03:09:19.445Z,18.94
2018-08-20T03:11:45.764Z,18.98
2018-08-20T03:14:12.096Z,18.98
2018-08-20T03:16:38.408Z,18.99
2018-08-20T03:19:04.732Z,18.77
2018-08-20T03:21:31.040Z,18.66
2018-08-20T03:23:57.370Z,18.69
2018-08-20T03:26:23.662Z,18.85
2018-08-20T03:28:49.967Z,18.87
2018-08-20T03:31:16.276Z,19.01
2018-08-20T03:33:42.585Z,19.53
2018-08-20T03:36:08.894Z,19.46
2018-08-20T03:38:35.208Z,19.52
2018-08-20T03:41:01.524Z,20.02
2018-08-20T03:43:27.839Z,20.09
2018-08-20T03:45:54.151Z,19.71
2018-08-20T03:48:20.465Z,19.31
2018-08-20T03:50:46.775Z,19.03
2018-08-20T03:53:13.088Z,19.14
2018-08-20T03:55:39.396Z,18.84
2018-08-20T03:58:05.709Z,18.74
2018-08-20T04:00:32.024Z,18.87
2018-08-20T04:02:58.323Z,18.94
2018-08-20T04:05:24.636Z,19.12
2018-08-20T04:07:50.939Z,19.34
2018-08-20T04:10:17.246Z,19.50
2018-08-20T04:12:43.555Z,19.64
2018-08-20T04:15:09.871Z,19.89
2018-08-20T04:17:36.180Z,19.51
2018-08-20T04:20:02.506Z,19.35
2018-08-20T04:22:28.816Z,19.21
2018-08-20T04:24:55.129Z,19.23
2018-08-20T04:27:21.487Z,19.37
2018-08-20T04:29:47.801Z,19.60
2018-08-20T04:32:14.104Z,19.94
2018-08-20T04:34:40.422Z,20.37
2018-08-20T04:37:06.730Z,20.55
2018-08-20T04:39:33.040Z,20.85
2018-08-20T04:41:59.356Z,21.30
2018-08-20T04:44:25.675Z,21.83
2018-08-20T04:46:51.980Z,22.15
2018-08-20T04:49:18.329Z,23.06
2018-08-20T04:51:44.636Z,23.73
2018-08-20T04:54:10.946Z,24.26
2018-08-20T04:56:37.270Z,24.34
2018-08-20T04:59:03.582Z,24.11
2018-08-20T05:01:29.894Z,23.69
2018-08-20T05:03:56.218Z,23.26
2018-08-20T05:06:22.531Z,23.73
2018-08-20T05:08:48.845Z,24.03
2018-08-20T05:11:15.160Z,24.16
2018-08-20T05:13:41.473Z,24.00
2018-08-20T05:16:07.786Z,23.71
2018-08-20T05:18:34.103Z,24.03
2018-08-20T05:21:00.409Z,23.94
2018-08-20T05:23:26.720Z,22.67
2018-08-20T05:25:53.033Z,22.09
2018-08-20T05:28:19.343Z,22.16
2018-08-20T05:30:45.653Z,22.52
2018-08-20T05:33:12.001Z,21.89
2018-08-20T05:35:38.311Z,21.53
2018-08-20T05:38:04.647Z,21.76
2018-08-20T05:40:30.972Z,21.74
2018-08-20T05:42:57.280Z,22.24
2018-08-20T05:45:23.594Z,22.56
2018-08-20T05:47:49.903Z,22.98
2018-08-20T05:50:16.209Z,22.58
2018-08-20T05:52:42.570Z,22.48
2018-08-20T05:55:08.841Z,22.89
2018-08-20T05:57:35.164Z,22.93
2018-08-20T06:00:01.475Z,23.02
2018-08-20T06:02:27.785Z,23.43
2018-08-20T06:04:54.094Z,23.81
2018-08-20T06:07:20.400Z,24.19
2018-08-20T06:09:46.712Z,24.39
2018-08-20T06:12:13.020Z,24.55
2018-08-20T06:14:39.378Z,25.04
2018-08-20T06:17:05.680Z,25.13
2018-08-20T06:19:31.997Z,25.13
2018-08-20T06:21:58.303Z,25.41
2018-08-20T06:24:24.613Z,25.80
2018-08-20T06:26:50.929Z,26.23
2018-08-20T06:29:17.240Z,26.15
2018-08-20T06:31:43.548Z,26.56
2018-08-20T06:34:09.862Z,26.71
2018-08-20T06:36:36.179Z,26.71
2018-08-20T06:39:02.488Z,26.99
2018-08-20T06:41:28.847Z,26.79
2018-08-20T06:43:55.154Z,26.49
2018-08-20T06:46:21.469Z,26.89
2018-08-20T06:48:47.792Z,26.88
2018-08-20T06:51:14.093Z,26.87
2018-08-20T06:53:40.395Z,26.82
2018-08-20T06:56:06.725Z,26.11
2018-08-20T06:58:33.036Z,26.14
2018-08-20T07:00:59.401Z,26.28
2018-08-20T07:03:25.774Z,26.35
2018-08-20T07:05:52.081Z,26.28
2018-08-20T07:08:18.402Z,25.73
2018-08-20T07:10:44.708Z,25.50
2018-08-20T07:13:11.020Z,26.02
2018-08-20T07:15:37.336Z,26.60
2018-08-20T07:18:03.647Z,27.16
2018-08-20T07:20:29.955Z,27.33
2018-08-20T07:22:56.278Z,27.65
2018-08-20T07:25:22.580Z,26.97
2018-08-20T07:27:48.926Z,26.33
2018-08-20T07:30:15.231Z,26.09
2018-08-20T07:32:41.548Z,25.92
2018-08-20T07:35:07.861Z,25.86
2018-08-20T07:37:34.169Z,26.04
2018-08-20T07:40:00.486Z,26.97
2018-08-20T07:42:26.804Z,28.03
2018-08-20T07:44:53.109Z,28.86
2018-08-20T07:47:19.423Z,29.21
2018-08-20T07:49:45.727Z,29.18
2018-08-20T07:52:12.053Z,29.19
2018-08-20T07:54:38.373Z,29.38
2018-08-20T07:57:04.695Z,29.33
2018-08-20T07:59:31.003Z,29.22
2018-08-20T08:01:57.316Z,29.70
2018-08-20T08:04:23.619Z,29.95
2018-08-20T08:06:49.942Z,30.57
2018-08-20T08:09:16.255Z,30.72
2018-08-20T08:11:42.564Z,30.36
2018-08-20T08:14:08.889Z,30.71
2018-08-20T08:16:35.211Z,31.02
2018-08-20T08:19:01.534Z,31.06
2018-08-20T08:21:27.843Z,31.60
2018-08-20T08:23:54.152Z,31.63
2018-08-20T08:26:20.460Z,31.34
2018-08-20T08:28:46.772Z,31.49
2018-08-20T08:31:13.085Z,31.04
2018-08-20T08:33:39.402Z,30.53
2018-08-20T08:36:05.707Z,30.27
2018-08-20T08:38:32.015Z,30.52
2018-08-20T08:40:58.327Z,31.12
2018-08-20T08:43:24.640Z,31.54
2018-08-20T08:45:50.994Z,31.56
2018-08-20T08:48:17.344Z,31.44
2018-08-20T08:50:43.647Z,30.88
2018-08-20T08:53:09.982Z,31.33
2018-08-20T08:55:36.295Z,32.00
2018-08-20T08:58:02.607Z,32.81
2018-08-20T09:00:28.998Z,32.25
2018-08-20T09:02:55.249Z,32.43
2018-08-20T09:05:21.560Z,32.13
2018-08-20T09:07:47.879Z,32.11
2018-08-20T09:10:14.189Z,32.04
2018-08-20T09:12:40.541Z,32.65
2018-08-20T09:15:06.849Z,32.35
2018-08-20T09:17:33.163Z,32.03
2018-08-20T09:19:59.513Z,32.57
2018-08-20T09:22:25.860Z,32.84
2018-08-20T09:24:52.171Z,32.71
2018-08-20T09:27:18.505Z,32.19
2018-08-20T09:29:44.815Z,32.62
2018-08-20T09:32:11.141Z,32.52
2018-08-20T09:34:37.448Z,31.69
2018-08-20T09:37:03.761Z,30.68
2018-08-20T09:39:30.080Z,31.20
2018-08-20T09:41:56.972Z,30.61
2018-08-20T09:44:23.139Z,31.10
2018-08-20T09:46:49.463Z,31.77
2018-08-20T09:49:15.771Z,32.28
2018-08-20T09:51:42.096Z,31.94
2018-08-20T09:54:08.419Z,31.25
2018-08-20T09:56:34.751Z,31.31
2018-08-20T09:59:01.070Z,31.30
2018-08-20T10:01:27.394Z,31.52
2018-08-20T10:03:53.709Z,31.27
2018-08-20T10:06:20.037Z,31.53
2018-08-20T10:08:46.365Z,31.86
2018-08-20T10:11:12.676Z,30.88
2018-08-20T10:13:39.059Z,30.39
2018-08-20T10:16:05.361Z,30.39
2018-08-20T10:18:31.870Z,29.96
2018-08-20T10:20:58.184Z,29.42
2018-08-20T10:23:24.511Z,29.16
2018-08-20T10:25:50.826Z,29.26
2018-08-20T10:28:17.147Z,29.27
2018-08-20T10:30:43.482Z,28.86
2018-08-20T10:33:09.794Z,28.55
2018-08-20T10:35:36.115Z,28.51
2018-08-20T10:38:02.512Z,28.67
2018-08-20T10:40:28.751Z,28.54
2018-08-20T10:42:55.063Z,28.51
2018-08-20T10:45:21.425Z,28.38
2018-08-20T10:47:47.769Z,28.45
2018-08-20T10:50:14.127Z,28.59
2018-08-20T10:52:40.440Z,28.63
2018-08-20T10:55:06.747Z,28.61
2018-08-20T10:57:33.130Z,28.37
2018-08-20T10:59:59.439Z,28.36
2018-08-20T11:02:25.794Z,28.37
2018-08-20T11:04:52.112Z,28.39
2018-08-20T11:07:18.497Z,28.39
2018-08-20T11:09:44.907Z,28.34
2018-08-20T11:12:11.253Z,28.47
2018-08-20T11:14:37.637Z,28.49
2018-08-20T11:17:03.937Z,28.38
2018-08-20T11:19:30.328Z,28.45
2018-08-20T11:21:56.693Z,28.40
2018-08-20T11:24:23.004Z,28.25
2018-08-20T11:26:49.398Z,28.31
2018-08-20T11:29:15.774Z,28.42
2018-08-20T11:31:42.159Z,28.32
2018-08-20T11:34:08.523Z,28.02
2018-08-20T11:36:34.914Z,27.74
2018-08-20T11:39:01.222Z,27.42
2018-08-20T11:41:27.541Z,27.15
2018-08-20T11:43:53.910Z,25.70
2018-08-20T11:46:20.200Z,24.47
2018-08-20T11:48:46.522Z,23.99
2018-08-20T11:51:12.876Z,23.87
2018-08-20T11:53:39.220Z,23.93
2018-08-20T11:56:05.538Z,23.97
2018-08-20T11:58:35.086Z,23.86
2018-08-20T12:01:01.396Z,23.69
2018-08-20T12:03:42.885Z,23.42
2018-08-20T12:06:07.995Z,23.18
2018-08-20T12:08:40.526Z,23.11
2018-08-20T12:11:01.050Z,23.11
2018-08-20T12:13:27.365Z,23.15
2018-08-20T12:15:55.562Z,23.26
2018-08-20T12:18:27.997Z,23.38
2018-08-20T12:20:57.957Z,23.48
2018-08-20T12:23:24.251Z,23.52
2018-08-20T12:25:50.582Z,23.40
2018-08-20T12:28:18.750Z,23.37
2018-08-20T12:30:43.287Z,23.39
2018-08-20T12:33:09.919Z,23.37
2018-08-20T12:35:43.665Z,23.33
2018-08-20T12:38:10.063Z,23.39
2018-08-20T12:40:37.924Z,23.46
2018-08-20T12:43:03.109Z,23.57
2018-08-20T12:45:29.682Z,23.54
2018-08-20T12:47:55.967Z,23.56
2018-08-20T12:50:22.293Z,23.55
2018-08-20T12:52:48.658Z,23.52
2018-08-20T12:55:15.017Z,23.62
2018-08-20T12:57:41.553Z,23.63
2018-08-20T13:00:07.898Z,23.76
2018-08-20T13:05:20.521Z,23.96
2018-08-20T13:07:46.832Z,23.95
2018-08-20T13:10:15.806Z,23.94
2018-08-20T13:12:42.336Z,23.95
2018-08-20T13:15:08.685Z,23.92
2018-08-20T13:17:39.976Z,23.91
2018-08-20T13:20:06.286Z,23.99
2018-08-20T13:22:32.636Z,24.06
2018-08-20T13:24:59.027Z,24.15
2018-08-20T13:27:25.363Z,24.18
2018-08-20T13:29:51.709Z,24.19
2018-08-20T13:32:18.039Z,24.27
2018-08-20T13:34:44.429Z,24.30
2018-08-20T13:37:10.769Z,24.34
2018-08-20T13:39:37.056Z,24.48
2018-08-20T13:42:03.386Z,24.51
2018-08-20T13:44:29.714Z,24.53
2018-08-20T13:46:56.065Z,24.57
2018-08-20T13:49:22.383Z,24.65
2018-08-20T13:51:48.710Z,24.71
2018-08-20T13:54:15.040Z,24.73
2018-08-20T13:56:41.437Z,24.82
2018-08-20T13:59:07.796Z,24.74
2018-08-20T14:01:34.127Z,24.70
2018-08-20T14:04:00.457Z,24.74
2018-08-20T14:06:26.791Z,24.75
2018-08-20T14:08:53.104Z,24.83
2018-08-20T14:11:19.435Z,24.78
2018-08-20T14:13:45.804Z,24.83
2018-08-20T14:16:12.203Z,24.91
2018-08-20T14:18:38.562Z,24.89
2018-08-20T14:21:04.929Z,24.85
2018-08-20T14:23:31.229Z,24.71
2018-08-20T14:25:57.601Z,24.66
2018-08-20T14:28:23.988Z,24.60
2018-08-20T14:30:50.319Z,24.69
2018-08-20T14:33:16.722Z,24.70
2018-08-20T14:35:43.096Z,24.71
2018-08-20T14:38:09.446Z,24.70
2018-08-20T14:40:35.831Z,24.71
2018-08-20T14:43:02.142Z,24.76
2018-08-20T14:45:28.474Z,24.81
2018-08-20T14:47:54.802Z,24.87
2018-08-20T14:50:21.138Z,24.91
2018-08-20T14:52:47.526Z,24.94
2018-08-20T14:55:13.875Z,24.94
2018-08-20T14:57:40.208Z,24.97
2018-08-20T15:00:06.710Z,25.08
2018-08-20T15:02:33.116Z,25.14
2018-08-20T15:04:59.422Z,25.19
2018-08-20T15:07:25.771Z,25.22
2018-08-20T15:09:52.093Z,25.31
2018-08-20T15:12:18.409Z,25.40
2018-08-20T15:14:44.756Z,25.45
2018-08-20T15:17:11.089Z,25.41
2018-08-20T15:19:37.432Z,25.42
2018-08-20T15:22:03.772Z,25.44
2018-08-20T15:24:30.094Z,25.52
2018-08-20T15:26:56.452Z,25.59
2018-08-20T15:29:22.778Z,25.61
2018-08-20T15:31:49.147Z,25.64
2018-08-20T15:34:15.463Z,25.75
2018-08-20T15:36:41.788Z,25.83
2018-08-20T15:39:08.161Z,25.78
2018-08-20T15:41:36.309Z,25.70
2018-08-20T15:44:00.794Z,25.68
2018-08-20T15:46:33.286Z,25.66
2018-08-20T15:48:59.655Z,25.65
2018-08-20T15:51:26.547Z,25.63
2018-08-20T15:53:52.808Z,25.67
2018-08-20T15:56:22.881Z,25.65
2018-08-20T15:58:49.096Z,25.65
2018-08-20T16:01:15.434Z,25.67
2018-08-20T16:03:48.297Z,25.65
2018-08-20T16:06:14.643Z,25.65
2018-08-20T16:11:29.761Z,25.57
2018-08-20T16:14:08.503Z,25.55
2018-08-20T16:16:34.864Z,25.56
2018-08-20T16:19:02.768Z,25.62
2018-08-20T16:21:27.572Z,25.63
2018-08-20T16:23:56.016Z,25.64
2018-08-20T16:26:20.740Z,25.57
2018-08-20T16:28:47.079Z,25.52
2018-08-20T16:31:13.798Z,25.48
2018-08-20T16:33:42.634Z,25.47
2018-08-20T16:36:30.340Z,25.47
2018-08-20T16:38:35.819Z,25.45
2018-08-20T16:41:05.034Z,25.46
2018-08-20T16:43:34.492Z,25.43
2018-08-20T16:46:12.064Z,25.38
2018-08-20T16:48:47.199Z,25.33
2018-08-20T16:51:18.992Z,25.31
2018-08-20T16:53:45.362Z,25.29
2018-08-20T16:56:19.212Z,25.22
2018-08-20T16:59:01.590Z,25.19
2018-08-20T17:01:26.541Z,25.12
2018-08-20T17:04:09.278Z,25.07
2018-08-20T17:06:37.241Z,25.06
2018-08-20T17:09:03.491Z,25.06
2018-08-20T17:11:29.994Z,25.03
2018-08-20T17:14:04.806Z,24.96
2018-08-20T17:16:31.136Z,24.86
2018-08-20T17:18:57.456Z,24.76
2018-08-20T17:21:24.500Z,24.71
2018-08-20T17:23:54.226Z,24.68
2018-08-20T17:26:20.676Z,24.62
2018-08-20T17:28:53.180Z,24.57
2018-08-20T17:31:19.523Z,24.55
2018-08-20T17:33:45.822Z,24.52
2018-08-20T17:36:12.167Z,24.46
2018-08-20T17:38:38.507Z,24.36
2018-08-20T17:41:04.840Z,24.26
2018-08-20T17:43:31.177Z,24.20
2018-08-20T17:45:57.513Z,24.12
2018-08-20T17:48:23.850Z,24.10
2018-08-20T17:50:50.234Z,24.09
2018-08-20T17:53:16.566Z,24.16
2018-08-20T17:55:42.905Z,24.19
2018-08-20T17:58:09.278Z,24.10
2018-08-20T18:00:35.600Z,24.08
2018-08-20T18:03:01.928Z,24.07
2018-08-20T18:05:28.254Z,24.03
2018-08-20T18:07:54.594Z,24.02
2018-08-20T18:10:20.900Z,24.04
2018-08-20T18:12:47.263Z,24.06
2018-08-20T18:15:13.609Z,24.04
2018-08-20T18:17:39.943Z,23.86
2018-08-20T18:20:06.269Z,23.75
2018-08-20T18:22:32.594Z,23.77
2018-08-20T18:24:58.915Z,23.61
2018-08-20T18:27:25.231Z,23.49
2018-08-20T18:29:51.650Z,23.49
2018-08-20T18:32:17.911Z,23.50
2018-08-20T18:34:45.296Z,23.54
2018-08-20T18:37:11.560Z,23.45
2018-08-20T18:39:37.900Z,23.28
2018-08-20T18:42:04.246Z,23.21
2018-08-20T18:44:30.564Z,23.07
2018-08-20T18:46:56.907Z,22.93
2018-08-20T18:49:23.224Z,22.86
2018-08-20T18:51:49.574Z,22.88
2018-08-20T18:54:15.974Z,22.88
2018-08-20T18:56:42.251Z,22.85
2018-08-20T18:59:08.580Z,22.80
2018-08-20T19:01:34.905Z,22.79
2018-08-20T19:04:01.246Z,22.93
2018-08-20T19:06:27.575Z,22.88
2018-08-20T19:08:53.943Z,22.86
2018-08-20T19:11:20.275Z,22.94
2018-08-20T19:13:46.593Z,22.81
2018-08-20T19:16:12.918Z,22.44
2018-08-20T19:18:39.245Z,22.20
2018-08-20T19:21:05.592Z,22.16
2018-08-20T19:23:31.907Z,22.16
2018-08-20T19:25:58.237Z,22.13
2018-08-20T19:28:24.579Z,22.15
2018-08-20T19:30:50.906Z,22.18
2018-08-20T19:33:17.233Z,22.12
2018-08-20T19:35:43.601Z,22.18
2018-08-20T19:38:09.919Z,22.15
2018-08-20T19:40:36.287Z,22.14
2018-08-20T19:43:02.588Z,22.15
2018-08-20T19:45:28.936Z,22.26
2018-08-20T19:47:55.304Z,22.09
2018-08-20T19:50:21.607Z,21.93
2018-08-20T19:52:47.933Z,21.98
2018-08-20T19:55:14.350Z,22.05
2018-08-20T19:57:40.742Z,22.09
2018-08-20T20:00:07.082Z,22.15
2018-08-20T20:02:33.408Z,22.05
2018-08-20T20:04:59.767Z,21.85
2018-08-20T20:07:26.083Z,21.67
2018-08-20T20:09:52.420Z,21.61
2018-08-20T20:12:18.809Z,21.58
2018-08-20T20:14:45.085Z,21.54
2018-08-20T20:17:11.415Z,21.55
2018-08-20T20:19:37.765Z,21.54
2018-08-20T20:22:04.082Z,21.60
2018-08-20T20:24:30.427Z,21.53
2018-08-20T20:26:56.733Z,21.38
2018-08-20T20:29:23.100Z,21.39
2018-08-20T20:31:49.438Z,21.35
2018-08-20T20:34:15.765Z,21.30
2018-08-20T20:36:42.090Z,21.41
2018-08-20T20:39:08.401Z,21.34
2018-08-20T20:41:34.724Z,21.35
2018-08-20T20:44:01.056Z,21.30
2018-08-20T20:46:27.377Z,21.22
2018-08-20T20:48:53.725Z,21.13
2018-08-20T20:51:20.072Z,20.95
2018-08-20T20:53:46.422Z,20.86
2018-08-20T20:56:12.764Z,20.92
2018-08-20T20:58:39.089Z,20.90
2018-08-20T21:01:05.484Z,20.83
2018-08-20T21:03:31.837Z,20.80
2018-08-20T21:05:58.157Z,20.72
2018-08-20T21:08:24.454Z,20.69
2018-08-20T21:10:50.769Z,20.71
2018-08-20T21:13:17.088Z,20.67
2018-08-20T21:15:43.404Z,20.73
2018-08-20T21:18:09.719Z,20.71
2018-08-20T21:20:36.033Z,20.65
2018-08-20T21:23:02.352Z,20.52
2018-08-20T21:25:28.697Z,20.40
2018-08-20T21:27:55.019Z,20.40
2018-08-20T21:30:21.346Z,20.34
2018-08-20T21:32:47.660Z,20.35
2018-08-20T21:35:13.977Z,20.35
2018-08-20T21:37:40.291Z,20.24
2018-08-20T21:40:06.606Z,20.40
2018-08-20T21:42:32.916Z,20.50
2018-08-20T21:44:59.234Z,20.38
2018-08-20T21:47:25.545Z,20.39
2018-08-20T21:49:51.865Z,20.42
2018-08-20T21:52:18.183Z,20.32
2018-08-20T21:54:44.493Z,20.27
2018-08-20T21:57:10.804Z,20.18
2018-08-20T21:59:37.170Z,20.19
2018-08-20T22:02:03.484Z,20.21
2018-08-20T22:04:29.838Z,20.34
2018-08-20T22:06:56.153Z,20.30
2018-08-20T22:09:22.465Z,20.28
2018-08-20T22:11:48.782Z,20.38
2018-08-20T22:14:15.098Z,20.38
2018-08-20T22:16:41.408Z,20.34
2018-08-20T22:19:07.745Z,20.26
2018-08-20T22:21:34.061Z,20.16
2018-08-20T22:24:00.377Z,20.08
2018-08-20T22:26:26.689Z,20.16
2018-08-20T22:28:53.003Z,20.25
2018-08-20T22:31:19.317Z,20.24
2018-08-20T22:33:45.629Z,20.22
2018-08-20T22:36:11.944Z,20.23
2018-08-20T22:38:38.256Z,20.17
2018-08-20T22:41:04.574Z,19.99
2018-08-20T22:43:30.884Z,20.15
2018-08-20T22:45:57.196Z,20.15
2018-08-20T22:48:23.508Z,20.03
2018-08-20T22:50:49.891Z,20.09
2018-08-20T22:53:16.196Z,20.09
2018-08-20T22:55:42.512Z,20.02
2018-08-20T22:58:08.818Z,20.06
2018-08-20T23:00:35.129Z,20.05
2018-08-20T23:03:01.444Z,19.85
2018-08-20T23:05:27.750Z,19.83
2018-08-20T23:07:54.067Z,20.00
2018-08-20T23:10:20.377Z,20.04
2018-08-20T23:12:46.683Z,20.06
2018-08-20T23:15:12.999Z,20.12
2018-08-20T23:17:39.312Z,20.03
2018-08-20T23:20:05.622Z,20.00
2018-08-20T23:22:31.933Z,20.05
2018-08-20T23:25:01.318Z,20.05
2018-08-20T23:27:27.641Z,19.93
2018-08-20T23:29:53.997Z,19.79
2018-08-20T23:32:20.348Z,19.86
2018-08-20T23:34:46.663Z,19.75
2018-08-20T23:37:12.971Z,19.74
2018-08-20T23:39:39.284Z,19.72
2018-08-20T23:42:05.596Z,19.55
2018-08-20T23:44:31.904Z,19.45
2018-08-20T23:46:58.219Z,19.08
2018-08-20T23:49:24.560Z,18.82
2018-08-20T23:51:50.900Z,18.94
2018-08-20T23:54:17.250Z,19.06
2018-08-20T23:56:43.569Z,19.11
2018-08-20T23:59:09.887Z,19.13
